Main page
METAR-TAF:

METAR-TAF

Airports :

Maputo International Airport

Maputo, Mozambique

latitude: 25-55S, longitude: 032-34E, elevation: 39 m

Current weather observation

The report was made 1 hour and 43 minutes ago, at 00:00 UTC
Wind 1 kt from variable directions
Temperature 23°C
Humidity 78%
Pressure 1013 hPa
Visibility 10 km or more
Few clouds at a height of 2000 ft

METAR: FQMA 220000Z VRB01KT 9999 FEW020 23/19 Q1013 NOSIG

Time: 03:43 (01:43 UTC)

Forecast

The report was made 3 hours and 43 minutes ago, at 22:00 UTC
Forecast valid from 22 at 00 UTC to 23 at 06 UTC
Wind 8 kt from the Southwest
Visibility 10 km or more
Scattered clouds at a height of 2000 ft
Becoming
from 22 at 06 UTC to 22 at 08 UTC
Wind 8 kt from the South
Becoming
from 22 at 12 UTC to 22 at 14 UTC
Wind 10 kt from the East/Northeast

TAF: FQMA 212200Z 2200/2306 23008KT 9999 SCT020 TX30/2213Z TN21/2203Z BECMG 2206/2208 17008KT BECMG 2212/2214 07010KT

Weather observations and forecasts of more than 4000 airports (METAR and TAF reports).

The available stations are represented by yellow and red dots on the map.

Hover mouse over dot to see the name of the station.

Then click to see weather observations and forecasts.

To change the map : click on the green buttons with a black cross to zoom in, on the green button with a dash to zoom out, or on the green arrows for adjacent maps.


METAR-TAF: